createdAt,value
2018-11-03T00:01:59.440Z,8.75
2018-11-03T00:04:27.812Z,8.40
2018-11-03T00:06:56.166Z,9.08
2018-11-03T00:09:24.544Z,10.35
2018-11-03T00:11:53.102Z,11.73
2018-11-03T00:14:21.462Z,11.35
2018-11-03T00:16:49.818Z,12.45
2018-11-03T00:19:18.142Z,11.22
2018-11-03T00:21:46.494Z,11.70
2018-11-03T00:24:14.826Z,10.55
2018-11-03T00:26:43.267Z,12.13
2018-11-03T00:29:11.657Z,12.43
2018-11-03T00:31:40.060Z,11.70
2018-11-03T00:34:08.393Z,13.50
2018-11-03T00:36:41.672Z,13.13
2018-11-03T00:39:11.446Z,11.12
2018-11-03T00:41:39.838Z,10.58
2018-11-03T00:44:08.784Z,10.55
2018-11-03T00:46:41.832Z,9.90
2018-11-03T00:49:10.255Z,9.15
2018-11-03T00:51:38.622Z,9.65
2018-11-03T00:54:06.943Z,8.88
2018-11-03T00:56:35.346Z,9.28
2018-11-03T00:59:04.434Z,9.50
2018-11-03T01:01:32.740Z,9.50
2018-11-03T01:04:02.118Z,9.15
2018-11-03T01:06:30.506Z,9.90
2018-11-03T01:08:58.826Z,9.73
2018-11-03T01:11:27.184Z,9.73
2018-11-03T01:13:55.538Z,9.30
2018-11-03T01:16:23.881Z,9.33
2018-11-03T01:18:52.259Z,9.88
2018-11-03T01:21:20.679Z,10.50
2018-11-03T01:23:49.054Z,11.33
2018-11-03T01:26:17.386Z,11.28
2018-11-03T01:28:45.686Z,10.35
2018-11-03T01:31:14.671Z,10.10
2018-11-03T01:33:43.199Z,11.60
2018-11-03T01:36:11.570Z,11.75
2018-11-03T01:38:39.931Z,10.95
2018-11-03T01:41:08.354Z,10.60
2018-11-03T01:43:36.695Z,10.68
2018-11-03T01:46:05.364Z,12.07
2018-11-03T01:48:33.726Z,11.80
2018-11-03T01:51:02.091Z,10.55
2018-11-03T01:53:30.411Z,10.85
2018-11-03T01:55:58.805Z,11.70
2018-11-03T01:58:27.125Z,12.73
2018-11-03T02:00:55.458Z,13.45
2018-11-03T02:03:23.801Z,12.20
2018-11-03T02:05:52.107Z,12.58
2018-11-03T02:08:20.451Z,12.25
2018-11-03T02:10:48.779Z,10.70
2018-11-03T02:13:17.181Z,11.12
2018-11-03T02:15:45.533Z,11.15
2018-11-03T02:18:13.891Z,12.30
2018-11-03T02:20:42.231Z,11.25
2018-11-03T02:23:10.603Z,11.70
2018-11-03T02:25:38.907Z,12.15
2018-11-03T02:28:07.399Z,12.03
2018-11-03T02:30:35.743Z,11.80
2018-11-03T02:33:04.057Z,11.20
2018-11-03T02:35:32.443Z,11.35
2018-11-03T02:38:00.751Z,11.20
2018-11-03T02:40:29.083Z,12.10
2018-11-03T02:42:57.404Z,12.85
2018-11-03T02:45:25.735Z,13.55
2018-11-03T02:47:54.055Z,12.82
2018-11-03T02:50:22.389Z,11.73
2018-11-03T02:52:50.641Z,12.47
2018-11-03T02:55:18.997Z,12.88
2018-11-03T02:57:47.369Z,13.65
2018-11-03T03:00:15.687Z,13.90
2018-11-03T03:02:44.058Z,12.75
2018-11-03T03:05:12.427Z,12.78
2018-11-03T03:07:40.945Z,13.68
2018-11-03T03:10:10.875Z,12.33
2018-11-03T03:12:39.273Z,11.88
2018-11-03T03:15:09.115Z,12.10
2018-11-03T03:17:37.443Z,11.00
2018-11-03T03:20:07.168Z,11.50
2018-11-03T03:22:35.603Z,11.88
2018-11-03T03:25:03.998Z,10.35
2018-11-03T03:27:32.566Z,9.80
2018-11-03T03:30:00.899Z,9.80
2018-11-03T03:32:29.238Z,9.90
2018-11-03T03:34:57.719Z,9.10
2018-11-03T03:37:26.125Z,9.90
2018-11-03T03:39:54.478Z,10.63
2018-11-03T03:42:22.900Z,9.95
2018-11-03T03:44:51.222Z,8.90
2018-11-03T03:47:19.684Z,9.55
2018-11-03T03:49:48.018Z,10.08
2018-11-03T03:52:16.346Z,11.25
2018-11-03T03:54:44.668Z,11.63
2018-11-03T03:57:12.994Z,11.20
2018-11-03T03:59:41.322Z,10.95
2018-11-03T04:02:09.650Z,11.63
2018-11-03T04:04:38.006Z,10.95
2018-11-03T04:07:06.542Z,10.55
2018-11-03T04:09:34.895Z,10.72
2018-11-03T04:12:03.291Z,12.25
2018-11-03T04:14:31.663Z,11.35
2018-11-03T04:17:00.058Z,12.47
2018-11-03T04:19:28.925Z,11.30
2018-11-03T04:21:57.293Z,10.65
2018-11-03T04:24:25.686Z,10.90
2018-11-03T04:26:54.021Z,10.72
2018-11-03T04:29:22.357Z,11.70
2018-11-03T04:31:50.825Z,12.50
2018-11-03T04:34:19.160Z,12.05
2018-11-03T04:36:47.523Z,11.90
2018-11-03T04:39:15.867Z,10.80
2018-11-03T04:41:44.285Z,11.43
2018-11-03T04:44:12.616Z,11.30
2018-11-03T04:46:40.999Z,11.50
2018-11-03T04:49:09.380Z,10.80
2018-11-03T04:51:37.747Z,11.40
2018-11-03T04:54:06.099Z,11.33
2018-11-03T04:56:34.473Z,13.00
2018-11-03T04:59:02.829Z,12.70
2018-11-03T05:01:31.154Z,12.25
2018-11-03T05:03:59.493Z,13.25
2018-11-03T05:06:27.865Z,14.00
2018-11-03T05:08:56.167Z,13.83
2018-11-03T05:11:24.528Z,14.45
2018-11-03T05:13:52.834Z,14.10
2018-11-03T05:16:21.214Z,14.47
2018-11-03T05:18:49.575Z,12.75
2018-11-03T05:21:17.932Z,12.68
2018-11-03T05:23:46.211Z,12.07
2018-11-03T05:26:14.542Z,12.98
2018-11-03T05:28:42.902Z,13.15
2018-11-03T05:31:11.275Z,13.50
2018-11-03T05:33:39.588Z,13.90
2018-11-03T05:36:07.944Z,14.60
2018-11-03T05:38:36.282Z,13.30
2018-11-03T05:41:05.046Z,15.08
2018-11-03T05:43:33.382Z,15.83
2018-11-03T05:46:01.715Z,14.80
2018-11-03T05:48:30.086Z,14.40
2018-11-03T05:50:58.436Z,14.47
2018-11-03T05:53:26.771Z,14.33
2018-11-03T05:55:55.108Z,14.70
2018-11-03T05:58:24.333Z,12.33
2018-11-03T06:00:52.761Z,13.10
2018-11-03T06:03:21.170Z,12.80
2018-11-03T06:05:49.498Z,11.20
2018-11-03T06:08:18.487Z,12.35
2018-11-03T06:10:46.919Z,13.50
2018-11-03T06:13:15.250Z,12.40
2018-11-03T06:15:43.723Z,10.43
2018-11-03T06:18:12.067Z,11.85
2018-11-03T06:20:44.196Z,11.33
2018-11-03T06:23:12.702Z,11.20
2018-11-03T06:25:41.669Z,10.98
2018-11-03T06:28:10.104Z,11.57
2018-11-03T06:30:38.529Z,12.10
2018-11-03T06:33:06.849Z,12.53
2018-11-03T06:35:35.323Z,11.48
2018-11-03T06:38:03.751Z,10.68
2018-11-03T06:40:34.136Z,11.35
2018-11-03T06:43:02.550Z,10.30
2018-11-03T06:45:30.972Z,10.00
2018-11-03T06:47:59.483Z,9.65
2018-11-03T06:50:27.966Z,12.30
2018-11-03T06:52:56.385Z,13.50
2018-11-03T06:55:24.829Z,10.43
2018-11-03T06:57:53.228Z,8.40
2018-11-03T07:00:21.703Z,8.80
2018-11-03T07:02:50.064Z,9.95
2018-11-03T07:05:18.594Z,8.95
2018-11-03T07:07:46.993Z,9.58
2018-11-03T07:10:15.514Z,19.17
2018-11-03T07:12:45.168Z,10.38
2018-11-03T07:15:13.807Z,10.15
2018-11-03T07:17:42.186Z,11.00
2018-11-03T07:20:11.987Z,8.90
2018-11-03T07:22:40.475Z,10.18
2018-11-03T07:25:09.231Z,10.10
2018-11-03T07:27:37.633Z,9.35
2018-11-03T07:30:08.927Z,9.55
2018-11-03T07:32:37.443Z,10.38
2018-11-03T07:35:06.059Z,14.40
2018-11-03T07:37:36.458Z,11.35
2018-11-03T07:40:06.003Z,9.50
2018-11-03T07:42:34.423Z,10.05
2018-11-03T07:45:02.832Z,9.37
2018-11-03T07:47:31.295Z,9.30
2018-11-03T07:49:59.619Z,10.57
2018-11-03T07:52:28.057Z,10.67
2018-11-03T07:54:56.623Z,9.10
2018-11-03T07:57:24.775Z,10.70
2018-11-03T07:59:53.314Z,9.90
2018-11-03T08:02:21.707Z,10.30
2018-11-03T08:04:51.138Z,10.30
2018-11-03T08:07:19.751Z,10.80
2018-11-03T08:09:48.103Z,10.60
2018-11-03T08:12:16.474Z,10.60
2018-11-03T08:14:45.128Z,11.20
2018-11-03T08:17:13.557Z,12.60
2018-11-03T08:19:41.934Z,12.30
2018-11-03T08:22:10.357Z,12.77
2018-11-03T08:24:38.755Z,10.70
2018-11-03T08:27:07.118Z,11.30
2018-11-03T08:29:36.217Z,10.50
2018-11-03T08:32:04.686Z,11.67
2018-11-03T08:34:33.115Z,12.97
2018-11-03T08:37:01.544Z,12.90
2018-11-03T08:39:30.248Z,14.00
2018-11-03T08:41:58.629Z,13.07
2018-11-03T08:44:27.058Z,12.67
2018-11-03T08:46:55.431Z,13.53
2018-11-03T08:49:23.913Z,13.17
2018-11-03T08:51:52.302Z,15.00
2018-11-03T08:54:20.657Z,13.73
2018-11-03T08:56:49.112Z,15.60
2018-11-03T08:59:17.519Z,15.00
2018-11-03T09:01:45.897Z,15.57
2018-11-03T09:04:14.276Z,16.57
2018-11-03T09:06:42.669Z,16.27
2018-11-03T09:09:11.619Z,17.07
2018-11-03T09:11:39.988Z,16.50
2018-11-03T09:14:08.414Z,17.32
2018-11-03T09:16:36.812Z,16.67
2018-11-03T09:19:05.336Z,16.73
2018-11-03T09:21:33.790Z,16.80
2018-11-03T09:24:02.405Z,17.65
2018-11-03T09:26:30.881Z,17.42
2018-11-03T09:28:59.826Z,18.30
2018-11-03T09:31:28.459Z,19.00
2018-11-03T09:33:56.891Z,21.17
2018-11-03T09:36:25.927Z,18.17
2018-11-03T09:38:54.284Z,19.13
2018-11-03T09:41:22.689Z,19.85
2018-11-03T09:43:51.361Z,19.20
2018-11-03T09:46:21.638Z,18.65
2018-11-03T09:48:50.067Z,18.82
2018-11-03T09:51:18.559Z,19.90
2018-11-03T09:53:46.859Z,20.72
2018-11-03T09:56:15.171Z,19.50
2018-11-03T09:58:43.672Z,19.07
2018-11-03T10:01:12.115Z,19.23
2018-11-03T10:03:40.482Z,20.97
2018-11-03T10:06:08.889Z,20.30
2018-11-03T10:08:37.296Z,20.00
2018-11-03T10:11:05.792Z,21.13
2018-11-03T10:13:34.168Z,32.40
2018-11-03T10:16:02.870Z,21.77
2018-11-03T10:18:31.091Z,20.07
2018-11-03T10:20:59.454Z,20.97
2018-11-03T10:23:27.968Z,19.60
2018-11-03T10:25:56.370Z,25.57
2018-11-03T10:28:24.770Z,21.20
2018-11-03T10:30:53.141Z,21.43
2018-11-03T10:33:21.662Z,22.13
2018-11-03T10:35:54.476Z,21.37
2018-11-03T10:38:23.526Z,21.60
2018-11-03T10:40:51.901Z,20.20
2018-11-03T10:43:20.272Z,22.27
2018-11-03T10:45:48.696Z,20.53
2018-11-03T10:48:17.782Z,19.33
2018-11-03T10:50:46.186Z,22.33
2018-11-03T10:53:14.954Z,23.23
2018-11-03T10:55:45.477Z,21.57
2018-11-03T10:58:14.732Z,19.30
2018-11-03T11:00:48.451Z,19.83
2018-11-03T11:03:22.548Z,19.33
2018-11-03T11:05:56.392Z,21.47
2018-11-03T11:08:30.742Z,19.03
2018-11-03T11:11:06.393Z,19.37
2018-11-03T11:13:37.052Z,17.80
2018-11-03T11:16:06.578Z,21.20
2018-11-03T11:18:35.640Z,18.13
2018-11-03T11:21:06.480Z,16.50
2018-11-03T11:26:26.707Z,15.07
2018-11-03T11:28:56.179Z,14.03
2018-11-03T11:31:24.772Z,14.03
2018-11-03T11:33:53.047Z,14.03
2018-11-03T11:36:21.832Z,12.23
2018-11-03T11:38:50.467Z,11.03
2018-11-03T11:41:18.868Z,10.37
2018-11-03T11:43:47.350Z,9.93
2018-11-03T11:46:16.102Z,10.07
2018-11-03T11:48:44.475Z,10.63
2018-11-03T11:51:12.852Z,10.77
2018-11-03T11:53:41.403Z,10.03
2018-11-03T11:56:09.907Z,10.87
2018-11-03T11:58:38.255Z,9.93
2018-11-03T12:01:07.570Z,9.77
2018-11-03T12:03:36.441Z,8.83
2018-11-03T12:06:04.899Z,8.97
2018-11-03T12:08:33.327Z,9.03
2018-11-03T12:11:02.185Z,9.03
2018-11-03T12:13:30.643Z,8.77
2018-11-03T12:15:59.315Z,7.63
2018-11-03T12:18:28.309Z,6.93
2018-11-03T12:20:58.236Z,10.47
2018-11-03T12:23:26.857Z,8.37
2018-11-03T12:25:55.704Z,6.63
2018-11-03T12:28:24.119Z,6.37
2018-11-03T12:30:52.550Z,5.23
2018-11-03T12:33:21.529Z,6.77
2018-11-03T12:35:49.995Z,6.13
2018-11-03T12:38:19.679Z,5.40
2018-11-03T12:40:49.465Z,5.70
2018-11-03T12:43:17.799Z,6.30
2018-11-03T12:45:46.411Z,6.00
2018-11-03T12:48:15.283Z,5.97
2018-11-03T12:50:44.645Z,5.30
2018-11-03T12:53:13.109Z,5.50
2018-11-03T12:55:42.155Z,5.70
2018-11-03T12:58:10.704Z,5.23
2018-11-03T13:00:39.159Z,5.07
2018-11-03T13:03:08.387Z,4.77
2018-11-03T13:05:38.253Z,5.20
2018-11-03T13:08:07.636Z,5.13
2018-11-03T13:10:36.049Z,5.60
2018-11-03T13:13:04.532Z,5.30
2018-11-03T13:15:34.639Z,5.13
2018-11-03T13:18:03.633Z,4.70
2018-11-03T13:20:32.679Z,5.10
2018-11-03T13:23:02.113Z,4.15
2018-11-03T13:25:31.097Z,4.80
2018-11-03T13:27:59.555Z,5.37
2018-11-03T13:30:29.250Z,8.47
2018-11-03T13:32:57.741Z,7.27
2018-11-03T13:35:26.132Z,5.30
2018-11-03T13:37:54.511Z,4.03
2018-11-03T13:40:22.865Z,4.20
2018-11-03T13:42:51.177Z,16.63
2018-11-03T13:45:23.461Z,4.90
2018-11-03T13:47:52.627Z,4.60
2018-11-03T13:50:21.130Z,4.00
2018-11-03T13:52:50.709Z,4.50
2018-11-03T13:55:19.075Z,5.10
2018-11-03T13:57:48.127Z,4.95
2018-11-03T14:00:17.791Z,5.08
2018-11-03T14:02:47.814Z,4.45
2018-11-03T14:05:16.398Z,5.17
2018-11-03T14:07:44.894Z,5.40
2018-11-03T14:10:14.599Z,5.63
2018-11-03T14:12:43.757Z,4.97
2018-11-03T14:15:13.453Z,6.33
2018-11-03T14:17:42.022Z,5.25
2018-11-03T14:20:12.545Z,5.70
2018-11-03T14:22:41.207Z,5.70
2018-11-03T14:25:12.012Z,6.05
2018-11-03T14:27:41.033Z,6.25
2018-11-03T14:30:10.133Z,6.00
2018-11-03T14:32:38.476Z,6.50
2018-11-03T14:35:07.409Z,6.00
2018-11-03T14:37:35.843Z,6.30
2018-11-03T14:40:07.432Z,6.42
2018-11-03T14:42:36.372Z,6.75
2018-11-03T14:45:05.321Z,5.95
2018-11-03T14:47:33.654Z,17.02
2018-11-03T14:50:04.659Z,7.67
2018-11-03T14:52:35.052Z,5.25
2018-11-03T14:55:04.342Z,5.47
2018-11-03T14:57:32.832Z,5.70
2018-11-03T15:00:01.902Z,5.83
2018-11-03T15:02:31.380Z,5.53
2018-11-03T15:05:06.898Z,5.85
2018-11-03T15:07:36.300Z,6.15
2018-11-03T15:10:05.663Z,5.70
2018-11-03T15:12:34.617Z,6.28
2018-11-03T15:15:03.167Z,5.47
2018-11-03T15:17:31.608Z,5.10
2018-11-03T15:20:01.656Z,4.85
2018-11-03T15:22:30.438Z,4.60
2018-11-03T15:24:58.744Z,5.45
2018-11-03T15:27:27.078Z,4.25
2018-11-03T15:29:55.406Z,3.85
2018-11-03T15:32:24.745Z,3.60
2018-11-03T15:34:53.131Z,4.53
2018-11-03T15:37:21.442Z,3.45
2018-11-03T15:39:50.027Z,3.90
2018-11-03T15:42:18.512Z,3.67
2018-11-03T15:44:47.255Z,2.80
2018-11-03T15:47:16.887Z,2.90
2018-11-03T15:49:45.344Z,2.35
2018-11-03T15:55:17.667Z,2.30
2018-11-03T15:57:46.294Z,2.20
2018-11-03T16:00:19.411Z,2.00
2018-11-03T16:02:48.456Z,2.12
2018-11-03T16:05:17.405Z,2.42
2018-11-03T16:07:48.489Z,2.62
2018-11-03T16:10:17.011Z,2.92
2018-11-03T16:12:49.362Z,3.50
2018-11-03T16:15:18.555Z,3.80
2018-11-03T16:17:47.851Z,2.50
2018-11-03T16:20:17.115Z,2.10
2018-11-03T16:22:46.262Z,1.87
2018-11-03T16:25:14.958Z,1.85
2018-11-03T16:27:44.269Z,2.45
2018-11-03T16:30:15.484Z,2.37
2018-11-03T16:32:44.382Z,2.15
2018-11-03T16:35:13.219Z,1.80
2018-11-03T16:37:42.724Z,2.02
2018-11-03T16:40:13.690Z,2.20
2018-11-03T16:42:43.023Z,1.60
2018-11-03T16:45:13.047Z,2.00
2018-11-03T16:47:42.702Z,2.10
2018-11-03T16:50:12.229Z,2.30
2018-11-03T16:52:45.961Z,2.20
2018-11-03T16:55:20.190Z,5.47
2018-11-03T16:57:48.750Z,21.82
2018-11-03T17:00:17.209Z,3.52
2018-11-03T17:02:48.288Z,5.42
2018-11-03T17:05:16.712Z,8.85
2018-11-03T17:07:49.629Z,7.53
2018-11-03T17:10:20.010Z,7.87
2018-11-03T17:12:48.709Z,4.35
2018-11-03T17:15:17.412Z,2.45
2018-11-03T17:17:46.312Z,2.27
2018-11-03T17:20:15.007Z,3.30
2018-11-03T17:22:43.418Z,2.70
2018-11-03T17:25:12.708Z,2.98
2018-11-03T17:27:42.773Z,2.58
2018-11-03T17:30:13.376Z,2.40
2018-11-03T17:32:42.122Z,3.20
2018-11-03T17:35:11.286Z,3.17
2018-11-03T17:37:46.822Z,3.90
2018-11-03T17:40:15.337Z,3.80
2018-11-03T17:42:43.835Z,3.85
2018-11-03T17:45:12.765Z,4.00
2018-11-03T17:47:41.329Z,3.95
2018-11-03T17:50:11.547Z,4.00
2018-11-03T17:52:40.937Z,4.30
2018-11-03T17:55:09.901Z,3.30
2018-11-03T17:57:39.250Z,3.37
2018-11-03T18:00:15.359Z,3.90
2018-11-03T18:02:44.781Z,4.72
2018-11-03T18:05:14.258Z,4.70
2018-11-03T18:07:45.847Z,5.22
2018-11-03T18:10:14.899Z,7.17
2018-11-03T18:12:43.734Z,8.83
2018-11-03T18:15:13.054Z,6.50
2018-11-03T18:17:45.066Z,7.30
2018-11-03T18:20:18.336Z,9.63
2018-11-03T18:22:49.449Z,8.43
2018-11-03T18:25:19.100Z,10.25
2018-11-03T18:27:48.214Z,7.65
2018-11-03T18:30:18.177Z,6.30
2018-11-03T18:32:47.988Z,5.67
2018-11-03T18:35:16.406Z,5.55
2018-11-03T18:37:45.373Z,6.20
2018-11-03T18:40:13.907Z,4.75
2018-11-03T18:42:49.240Z,4.37
2018-11-03T18:45:17.863Z,4.33
2018-11-03T18:47:46.608Z,4.00
2018-11-03T18:50:16.421Z,4.37
2018-11-03T18:52:46.020Z,4.10
2018-11-03T18:55:15.122Z,3.40
2018-11-03T18:57:43.524Z,2.95
2018-11-03T19:00:12.573Z,3.50
2018-11-03T19:02:41.621Z,3.30
2018-11-03T19:05:10.184Z,3.30
2018-11-03T19:07:38.663Z,3.22
2018-11-03T19:10:07.854Z,4.50
2018-11-03T19:12:37.731Z,3.65
2018-11-03T19:15:09.978Z,4.42
2018-11-03T19:17:39.708Z,4.90
2018-11-03T19:20:10.982Z,3.45
2018-11-03T19:22:40.058Z,3.37
2018-11-03T19:25:10.990Z,3.80
2018-11-03T19:27:43.174Z,4.83
2018-11-03T19:30:16.061Z,6.20
2018-11-03T19:32:45.434Z,7.40
2018-11-03T19:35:15.214Z,6.58
2018-11-03T19:37:44.256Z,7.60
2018-11-03T19:40:14.442Z,6.80
2018-11-03T19:42:46.792Z,6.58
2018-11-03T19:45:21.960Z,7.37
2018-11-03T19:47:51.446Z,6.92
2018-11-03T19:50:22.676Z,6.97
2018-11-03T19:52:51.890Z,6.90
2018-11-03T19:55:21.866Z,6.85
2018-11-03T19:57:50.747Z,6.95
2018-11-03T20:00:23.618Z,5.90
2018-11-03T20:02:55.552Z,7.62
2018-11-03T20:05:25.473Z,7.00
2018-11-03T20:08:09.889Z,7.55
2018-11-03T20:10:43.224Z,7.78
2018-11-03T20:13:12.961Z,7.67
2018-11-03T20:15:43.308Z,7.20
2018-11-03T20:18:13.353Z,9.33
2018-11-03T20:20:44.717Z,8.03
2018-11-03T20:23:15.189Z,8.73
2018-11-03T20:25:45.923Z,8.20
2018-11-03T20:28:15.094Z,12.43
2018-11-03T20:30:48.135Z,8.50
2018-11-03T20:33:28.813Z,6.95
2018-11-03T20:36:01.299Z,8.23
2018-11-03T20:38:34.396Z,7.28
2018-11-03T20:41:10.055Z,5.95
2018-11-03T20:43:47.713Z,6.85
2018-11-03T20:46:38.652Z,6.10
2018-11-03T20:49:09.739Z,8.05
2018-11-03T20:51:46.069Z,7.78
2018-11-03T20:56:51.477Z,7.20
2018-11-03T20:59:26.154Z,7.70
2018-11-03T21:02:05.815Z,7.33
2018-11-03T21:04:38.341Z,9.85
2018-11-03T21:07:08.194Z,10.65
2018-11-03T21:09:39.313Z,9.38
2018-11-03T21:12:09.337Z,10.93
2018-11-03T21:14:47.911Z,10.40
2018-11-03T21:17:16.969Z,8.93
2018-11-03T21:19:48.096Z,10.05
2018-11-03T21:22:18.773Z,9.93
2018-11-03T21:24:49.805Z,10.45
2018-11-03T21:27:20.576Z,10.03
2018-11-03T21:29:50.599Z,9.65
2018-11-03T21:32:30.637Z,10.50
2018-11-03T21:35:05.305Z,9.55
2018-11-03T21:37:38.024Z,10.55
2018-11-03T21:40:09.646Z,10.35
2018-11-03T21:45:39.333Z,10.15
2018-11-03T21:48:09.930Z,10.35
2018-11-03T21:50:40.659Z,11.10
2018-11-03T22:14:16.526Z,10.88
2018-11-03T22:16:45.927Z,10.40
2018-11-03T22:19:15.541Z,11.20
2018-11-03T22:21:44.159Z,12.25
2018-11-03T22:24:12.807Z,11.18
2018-11-03T22:26:41.278Z,10.88
2018-11-03T22:29:09.960Z,11.35
2018-11-03T22:31:38.538Z,10.68
2018-11-03T22:34:09.784Z,11.55
2018-11-03T22:36:40.333Z,12.25
2018-11-03T22:39:09.002Z,12.30
2018-11-03T22:41:37.565Z,13.72
2018-11-03T22:44:06.040Z,14.25
2018-11-03T22:46:34.830Z,12.73
2018-11-03T22:49:03.304Z,13.88
2018-11-03T22:51:32.467Z,13.40
2018-11-03T22:54:02.432Z,13.72
2018-11-03T22:56:31.038Z,14.83
2018-11-03T22:58:59.535Z,13.35
2018-11-03T23:01:29.170Z,14.10
2018-11-03T23:03:59.038Z,13.13
2018-11-03T23:06:28.693Z,11.75
2018-11-03T23:08:57.905Z,12.25
2018-11-03T23:11:26.918Z,12.45
2018-11-03T23:13:55.700Z,13.00
2018-11-03T23:16:24.102Z,12.53
2018-11-03T23:18:52.504Z,13.45
2018-11-03T23:21:20.916Z,13.65
2018-11-03T23:23:49.273Z,13.18
2018-11-03T23:26:17.758Z,13.72
2018-11-03T23:28:46.163Z,13.25
2018-11-03T23:31:14.578Z,12.98
2018-11-03T23:33:42.927Z,14.05
2018-11-03T23:36:11.329Z,14.00
2018-11-03T23:38:39.679Z,14.68
2018-11-03T23:41:09.058Z,14.80
2018-11-03T23:43:38.405Z,14.20
2018-11-03T23:46:06.815Z,12.20
2018-11-03T23:48:35.168Z,13.38
2018-11-03T23:51:03.666Z,15.25
2018-11-03T23:53:32.054Z,13.20
2018-11-03T23:56:00.463Z,12.80
2018-11-03T23:58:28.887Z,13.85
